createdAt,value
2023-03-30T00:02:47.352Z,17.26
2023-03-30T00:07:49.018Z,17.31
2023-03-30T00:12:50.909Z,17.31
2023-03-30T00:17:52.424Z,17.21
2023-03-30T00:22:54.007Z,17.16
2023-03-30T00:27:55.534Z,17.02
2023-03-30T00:32:57.040Z,17.14
2023-03-30T00:37:59.528Z,17.17
2023-03-30T00:43:03.535Z,17.21
2023-03-30T00:48:11.520Z,16.96
2023-03-30T00:53:17.054Z,16.96
2023-03-30T00:58:21.184Z,17.02
2023-03-30T01:03:31.378Z,17.00
2023-03-30T01:08:34.531Z,16.91
2023-03-30T01:13:39.691Z,16.89
2023-03-30T01:19:13.501Z,16.85
2023-03-30T01:24:51.793Z,16.98
2023-03-30T01:30:30.202Z,16.82
2023-03-30T01:36:03.313Z,16.62
2023-03-30T01:41:14.638Z,16.82
2023-03-30T01:46:23.619Z,16.81
2023-03-30T01:51:32.560Z,16.92
2023-03-30T01:56:55.019Z,16.79
2023-03-30T02:02:00.480Z,16.77
2023-03-30T02:07:15.369Z,16.95
2023-03-30T02:12:18.266Z,16.94
2023-03-30T02:17:23.470Z,16.81
2023-03-30T02:22:27.191Z,16.85
2023-03-30T02:27:29.375Z,16.69
2023-03-30T02:32:41.836Z,16.98
2023-03-30T02:38:17.371Z,17.17
2023-03-30T02:43:38.256Z,17.06
2023-03-30T02:48:44.959Z,16.76
2023-03-30T02:53:52.926Z,16.94
2023-03-30T02:59:19.712Z,16.58
2023-03-30T03:04:23.674Z,16.59
2023-03-30T03:09:46.100Z,16.35
2023-03-30T03:14:48.130Z,16.25
2023-03-30T03:19:49.851Z,16.19
2023-03-30T03:24:53.660Z,16.06
2023-03-30T03:30:04.856Z,16.16
2023-03-30T03:35:13.178Z,16.12
2023-03-30T03:40:15.127Z,16.14
2023-03-30T03:45:16.879Z,16.13
2023-03-30T03:50:26.592Z,16.10
2023-03-30T03:55:28.710Z,16.24
2023-03-30T04:00:30.669Z,16.29
2023-03-30T04:05:32.306Z,16.25
2023-03-30T04:10:33.982Z,16.16
2023-03-30T04:15:53.137Z,16.13
2023-03-30T04:21:13.152Z,16.17
2023-03-30T04:26:34.259Z,15.91
2023-03-30T04:31:56.091Z,16.05
2023-03-30T04:37:18.658Z,16.11
2023-03-30T04:42:39.505Z,16.24
2023-03-30T04:47:52.721Z,16.29
2023-03-30T04:53:26.238Z,16.32
2023-03-30T04:58:47.292Z,16.49
2023-03-30T05:03:59.004Z,16.58
2023-03-30T05:09:21.580Z,16.74
2023-03-30T05:14:52.775Z,16.82
2023-03-30T05:20:23.652Z,16.79
2023-03-30T05:25:56.418Z,16.75
2023-03-30T05:31:06.886Z,16.71
2023-03-30T05:36:18.922Z,16.67
2023-03-30T05:41:34.389Z,16.46
2023-03-30T05:46:55.826Z,16.44
2023-03-30T05:52:03.599Z,16.30
2023-03-30T05:57:29.717Z,16.35
2023-03-30T06:02:47.099Z,16.26
2023-03-30T06:07:52.970Z,16.34
2023-03-30T06:12:54.545Z,16.36
2023-03-30T06:18:14.417Z,16.20
2023-03-30T06:23:24.435Z,16.18
2023-03-30T06:28:29.457Z,16.19
2023-03-30T06:33:31.059Z,16.19
2023-03-30T06:38:35.923Z,16.36
2023-03-30T06:43:38.237Z,16.42
2023-03-30T06:48:48.434Z,16.29
2023-03-30T06:54:07.988Z,16.14
2023-03-30T06:59:11.613Z,16.36
2023-03-30T07:04:33.164Z,16.42
2023-03-30T07:09:46.951Z,16.47
2023-03-30T07:14:48.939Z,16.61
2023-03-30T07:19:51.171Z,16.56
2023-03-30T07:24:52.991Z,16.62
2023-03-30T07:29:55.225Z,16.41
2023-03-30T07:34:57.024Z,16.48
2023-03-30T07:40:00.515Z,16.75
2023-03-30T07:45:03.625Z,16.89
2023-03-30T07:50:05.920Z,16.68
2023-03-30T07:55:08.736Z,16.86
2023-03-30T08:00:17.981Z,16.99
2023-03-30T08:05:42.436Z,17.18
2023-03-30T08:10:53.756Z,17.39
2023-03-30T08:15:56.143Z,17.63
2023-03-30T08:20:57.680Z,17.98
2023-03-30T08:26:00.298Z,18.10
2023-03-30T08:31:06.672Z,18.21
2023-03-30T08:36:08.543Z,18.38
2023-03-30T08:41:24.660Z,18.32
2023-03-30T08:46:27.107Z,18.35
2023-03-30T08:51:32.601Z,18.61
2023-03-30T08:56:42.874Z,18.93
2023-03-30T09:02:15.296Z,18.78
2023-03-30T09:07:23.144Z,18.64
2023-03-30T09:12:38.866Z,18.95
2023-03-30T09:17:55.939Z,19.18
2023-03-30T09:23:00.204Z,19.40
2023-03-30T09:28:31.006Z,19.46
2023-03-30T09:33:44.916Z,19.17
2023-03-30T09:38:46.395Z,19.52
2023-03-30T09:43:49.726Z,19.29
2023-03-30T09:48:51.590Z,19.10
2023-03-30T09:54:02.550Z,18.97
2023-03-30T09:59:28.853Z,18.64
2023-03-30T10:04:30.372Z,18.08
2023-03-30T10:09:31.957Z,17.93
2023-03-30T10:14:37.220Z,17.86
2023-03-30T10:19:45.851Z,17.48
2023-03-30T10:24:52.309Z,16.79
2023-03-30T10:29:53.942Z,16.28
2023-03-30T10:34:59.544Z,16.19
2023-03-30T10:40:09.249Z,15.95
2023-03-30T10:45:20.769Z,16.07
2023-03-30T10:50:31.302Z,16.06
2023-03-30T10:55:47.704Z,16.06
2023-03-30T11:01:03.123Z,16.15
2023-03-30T11:06:16.852Z,16.28
2023-03-30T11:11:22.506Z,15.80
2023-03-30T11:16:35.308Z,15.60
2023-03-30T11:21:46.709Z,15.46
2023-03-30T11:27:09.934Z,15.79
2023-03-30T11:32:16.718Z,16.05
2023-03-30T11:37:28.421Z,16.34
2023-03-30T11:42:32.797Z,16.55
2023-03-30T11:47:55.967Z,16.40
2023-03-30T11:53:21.281Z,16.62
2023-03-30T11:58:36.101Z,16.57
2023-03-30T12:03:47.241Z,16.61
2023-03-30T12:09:00.124Z,16.84
2023-03-30T12:14:02.384Z,16.88
2023-03-30T12:19:23.253Z,17.00
2023-03-30T12:24:44.076Z,16.90
2023-03-30T12:30:01.550Z,16.85
2023-03-30T12:35:45.745Z,17.12
2023-03-30T12:41:07.597Z,17.44
2023-03-30T12:46:19.556Z,17.74
2023-03-30T12:51:45.966Z,17.54
2023-03-30T12:56:59.788Z,17.47
2023-03-30T13:02:38.783Z,17.34
2023-03-30T13:07:41.466Z,16.91
2023-03-30T13:12:43.212Z,16.37
2023-03-30T13:17:56.654Z,16.02
2023-03-30T13:22:59.596Z,16.11
2023-03-30T13:28:38.980Z,15.76
2023-03-30T13:33:45.690Z,15.07
2023-03-30T13:38:59.150Z,14.96
2023-03-30T13:44:35.914Z,14.44
2023-03-30T13:49:43.094Z,14.53
2023-03-30T13:54:46.321Z,14.62
2023-03-30T14:00:08.591Z,15.06
2023-03-30T14:05:18.402Z,14.91
2023-03-30T14:10:20.893Z,15.09
2023-03-30T14:15:34.805Z,14.97
2023-03-30T14:20:50.493Z,15.02
2023-03-30T14:25:59.590Z,15.33
2023-03-30T14:31:04.747Z,15.56
2023-03-30T14:36:07.548Z,15.58
2023-03-30T14:41:25.359Z,15.86
2023-03-30T14:46:46.773Z,16.06
2023-03-30T14:51:50.523Z,16.44
2023-03-30T14:57:00.312Z,16.57
2023-03-30T15:02:03.467Z,17.07
2023-03-30T15:07:05.155Z,17.63
2023-03-30T15:12:06.980Z,18.07
2023-03-30T15:17:13.401Z,18.14
2023-03-30T15:22:31.938Z,18.41
2023-03-30T15:27:36.854Z,18.39
2023-03-30T15:32:39.781Z,18.80
2023-03-30T15:37:58.152Z,19.04
2023-03-30T15:43:20.804Z,18.81
2023-03-30T15:48:44.279Z,18.91
2023-03-30T15:54:00.775Z,19.00
2023-03-30T15:59:02.403Z,18.99
2023-03-30T16:04:05.785Z,19.12
2023-03-30T16:09:07.455Z,18.68
2023-03-30T16:14:14.126Z,18.56
2023-03-30T16:19:18.645Z,17.92
2023-03-30T16:24:20.168Z,17.80
2023-03-30T16:29:23.270Z,17.45
2023-03-30T16:34:25.634Z,17.37
2023-03-30T16:39:29.262Z,17.80
2023-03-30T16:44:30.775Z,17.79
2023-03-30T16:49:32.296Z,17.74
2023-03-30T16:54:33.784Z,17.59
2023-03-30T16:59:35.324Z,17.27
2023-03-30T17:04:36.834Z,17.26
2023-03-30T17:09:38.308Z,17.14
2023-03-30T17:14:42.033Z,17.00
2023-03-30T17:19:44.602Z,16.95
2023-03-30T17:24:46.092Z,16.90
2023-03-30T17:29:47.533Z,16.94
2023-03-30T17:34:49.096Z,16.73
2023-03-30T17:39:50.696Z,16.67
2023-03-30T17:44:52.188Z,16.58
2023-03-30T17:49:53.702Z,16.60
2023-03-30T17:54:56.991Z,16.54
2023-03-30T17:59:58.510Z,16.40
2023-03-30T18:04:59.979Z,16.24
2023-03-30T18:10:01.548Z,16.29
2023-03-30T18:15:03.214Z,16.34
2023-03-30T18:20:16.790Z,16.29
2023-03-30T18:25:29.796Z,16.20
2023-03-30T18:30:37.959Z,16.08
2023-03-30T18:35:39.572Z,16.10
2023-03-30T18:40:47.131Z,16.09
2023-03-30T18:45:50.124Z,15.97
2023-03-30T18:50:55.194Z,15.83
2023-03-30T18:55:58.684Z,15.62
2023-03-30T19:01:00.665Z,15.52
2023-03-30T19:06:02.386Z,15.24
2023-03-30T19:11:03.831Z,15.29
2023-03-30T19:16:05.742Z,15.27
2023-03-30T19:21:13.671Z,15.28
2023-03-30T19:26:15.232Z,15.16
2023-03-30T19:31:16.919Z,15.00
2023-03-30T19:36:18.479Z,14.88
2023-03-30T19:41:19.929Z,14.77
2023-03-30T19:46:21.495Z,14.63
2023-03-30T19:51:23.037Z,14.66
2023-03-30T19:56:24.507Z,14.63
2023-03-30T20:01:26.054Z,14.60
2023-03-30T20:06:27.776Z,14.74
2023-03-30T20:11:29.354Z,14.86
2023-03-30T20:16:30.885Z,14.92
2023-03-30T20:21:33.002Z,15.10
2023-03-30T20:26:35.007Z,15.06
2023-03-30T20:31:36.587Z,15.09
2023-03-30T20:36:38.817Z,15.09
2023-03-30T20:41:40.303Z,15.07
2023-03-30T20:46:41.842Z,15.13
2023-03-30T20:51:43.317Z,15.11
2023-03-30T20:56:45.317Z,15.21
2023-03-30T21:01:47.057Z,15.20
2023-03-30T21:06:48.619Z,15.17
2023-03-30T21:11:50.065Z,15.24
2023-03-30T21:16:51.604Z,15.47
2023-03-30T21:21:53.134Z,15.57
2023-03-30T21:26:54.581Z,15.79
2023-03-30T21:31:56.021Z,15.80
2023-03-30T21:36:57.647Z,15.80
2023-03-30T21:41:59.268Z,15.74
2023-03-30T21:47:00.794Z,15.55
2023-03-30T21:52:02.561Z,15.42
2023-03-30T21:57:04.221Z,15.58
2023-03-30T22:02:05.832Z,15.49
2023-03-30T22:07:07.336Z,15.53
2023-03-30T22:12:08.792Z,15.51
2023-03-30T22:17:10.293Z,15.54
2023-03-30T22:22:12.110Z,15.33
2023-03-30T22:27:16.102Z,15.15
2023-03-30T22:32:17.610Z,14.94
2023-03-30T22:37:19.076Z,14.65
2023-03-30T22:42:20.591Z,14.75
2023-03-30T22:47:22.189Z,14.57
2023-03-30T22:52:23.740Z,14.61
2023-03-30T22:57:25.342Z,14.28
2023-03-30T23:02:26.872Z,14.04
2023-03-30T23:07:28.331Z,14.15
2023-03-30T23:12:30.659Z,14.10
2023-03-30T23:17:32.245Z,14.08
2023-03-30T23:22:33.768Z,14.00
2023-03-30T23:27:35.746Z,14.14
2023-03-30T23:32:37.246Z,14.24
2023-03-30T23:37:38.792Z,14.25
2023-03-30T23:42:40.259Z,14.19
2023-03-30T23:47:42.976Z,14.11
2023-03-30T23:52:44.478Z,14.19
2023-03-30T23:57:45.984Z,14.22
